createdAt,value
2016-11-13T00:00:22.647Z,0
2016-11-13T00:01:22.335Z,0
2016-11-13T00:02:22.392Z,0
2016-11-13T00:03:22.457Z,0
2016-11-13T00:04:22.048Z,0
2016-11-13T00:05:22.156Z,0
2016-11-13T00:06:21.793Z,0
2016-11-13T00:07:22.690Z,0
2016-11-13T00:08:23.682Z,0
2016-11-13T00:09:23.065Z,0
2016-11-13T00:10:22.900Z,0
2016-11-13T00:11:22.449Z,0
2016-11-13T00:12:22.504Z,0
2016-11-13T00:13:22.731Z,0
2016-11-13T00:14:37.453Z,0
2016-11-13T00:15:22.454Z,0
2016-11-13T00:16:22.825Z,0
2016-11-13T00:17:24.137Z,0
2016-11-13T00:18:22.807Z,0
2016-11-13T00:19:23.919Z,0
2016-11-13T00:20:22.143Z,0
2016-11-13T00:21:23.165Z,0
2016-11-13T00:22:22.835Z,0
2016-11-13T00:23:22.839Z,0
2016-11-13T00:24:22.221Z,0
2016-11-13T00:25:22.491Z,0
2016-11-13T00:26:22.549Z,0
2016-11-13T00:27:22.603Z,0
2016-11-13T00:28:22.258Z,0
2016-11-13T00:29:23.193Z,0
2016-11-13T00:30:23.964Z,0
2016-11-13T00:31:22.851Z,0
2016-11-13T00:32:23.137Z,0
2016-11-13T00:33:22.854Z,0
2016-11-13T00:34:22.733Z,0
2016-11-13T00:35:22.388Z,0
2016-11-13T00:36:22.926Z,0
2016-11-13T00:37:22.878Z,0
2016-11-13T00:38:23.250Z,0
2016-11-13T00:39:23.962Z,0
2016-11-13T00:40:23.269Z,0
2016-11-13T00:41:24.439Z,0
2016-11-13T00:42:22.284Z,0
2016-11-13T00:43:23.615Z,0
2016-11-13T00:44:22.971Z,0
2016-11-13T00:45:22.939Z,0
2016-11-13T00:46:22.677Z,0
2016-11-13T00:47:23.064Z,0
2016-11-13T00:48:23.001Z,0
2016-11-13T00:49:22.692Z,0
2016-11-13T00:50:23.091Z,0
2016-11-13T00:51:23.069Z,0
2016-11-13T00:52:24.836Z,0
2016-11-13T00:53:22.818Z,0
2016-11-13T00:54:22.370Z,0
2016-11-13T00:55:22.779Z,0
2016-11-13T00:56:22.693Z,0
2016-11-13T00:57:22.695Z,0
2016-11-13T00:58:22.754Z,0
2016-11-13T00:59:22.758Z,0
2016-11-13T01:00:22.765Z,0
2016-11-13T01:01:22.866Z,0
2016-11-13T01:02:23.032Z,0
2016-11-13T01:03:25.245Z,0
2016-11-13T01:04:22.740Z,0
2016-11-13T01:05:22.116Z,0
2016-11-13T01:06:22.855Z,0
2016-11-13T01:07:22.752Z,0
2016-11-13T01:08:23.127Z,0
2016-11-13T01:09:23.133Z,0
2016-11-13T01:10:23.148Z,0
2016-11-13T01:11:22.833Z,0
2016-11-13T01:12:22.973Z,0
2016-11-13T01:13:22.850Z,0
2016-11-13T01:14:22.907Z,0
2016-11-13T01:15:22.593Z,0
2016-11-13T01:16:24.342Z,0
2016-11-13T01:17:22.555Z,0
2016-11-13T01:18:23.135Z,0
2016-11-13T01:19:22.941Z,0
2016-11-13T01:20:23.138Z,0
2016-11-13T01:21:23.210Z,0
2016-11-13T01:22:22.931Z,0
2016-11-13T01:23:23.219Z,0
2016-11-13T01:24:22.996Z,0
2016-11-13T01:25:23.320Z,0
2016-11-13T01:26:22.881Z,0
2016-11-13T01:27:22.988Z,0
2016-11-13T01:28:22.895Z,0
2016-11-13T01:29:23.206Z,0
2016-11-13T01:30:22.692Z,0
2016-11-13T01:31:22.962Z,0
2016-11-13T01:32:22.915Z,0
2016-11-13T01:33:23.554Z,0
2016-11-13T01:34:24.091Z,0
2016-11-13T01:35:23.346Z,0
2016-11-13T01:36:23.502Z,0
2016-11-13T01:37:23.000Z,0
2016-11-13T01:38:23.050Z,0
2016-11-13T01:39:23.410Z,0
2016-11-13T01:40:23.018Z,0
2016-11-13T01:41:23.332Z,0
2016-11-13T01:42:23.291Z,0
2016-11-13T01:43:23.083Z,0
2016-11-13T01:44:37.656Z,0
2016-11-13T01:45:24.359Z,0
2016-11-13T01:46:23.363Z,0
2016-11-13T01:47:23.570Z,0
2016-11-13T01:48:23.017Z,0
2016-11-13T01:49:22.862Z,0
2016-11-13T01:50:23.176Z,0
2016-11-13T01:51:22.728Z,0
2016-11-13T01:52:23.407Z,0
2016-11-13T01:53:22.835Z,0
2016-11-13T01:54:23.721Z,0
2016-11-13T01:55:23.422Z,0
2016-11-13T01:56:24.077Z,0
2016-11-13T01:57:23.385Z,0
2016-11-13T01:58:23.021Z,0
2016-11-13T01:59:23.181Z,0
2016-11-13T02:00:22.827Z,0
2016-11-13T02:01:22.837Z,0
2016-11-13T02:02:23.205Z,0
2016-11-13T02:03:23.736Z,0
2016-11-13T02:04:22.899Z,0
2016-11-13T02:05:23.222Z,0
2016-11-13T02:06:23.490Z,0
2016-11-13T02:07:23.584Z,0
2016-11-13T02:08:23.140Z,0
2016-11-13T02:09:23.606Z,0
2016-11-13T02:10:23.254Z,0
2016-11-13T02:11:23.259Z,0
2016-11-13T02:12:23.627Z,0
2016-11-13T02:13:23.171Z,0
2016-11-13T02:14:23.177Z,0
2016-11-13T02:15:23.501Z,0
2016-11-13T02:16:23.916Z,0
2016-11-13T02:17:23.249Z,0
2016-11-13T02:18:24.060Z,0
2016-11-13T02:19:23.261Z,0
2016-11-13T02:20:23.705Z,0
2016-11-13T02:21:22.953Z,0
2016-11-13T02:22:23.103Z,0
2016-11-13T02:23:22.973Z,0
2016-11-13T02:24:23.553Z,0
2016-11-13T02:25:23.245Z,0
2016-11-13T02:26:23.303Z,0
2016-11-13T02:27:23.623Z,0
2016-11-13T02:28:23.049Z,0
2016-11-13T02:29:24.537Z,0
2016-11-13T02:30:23.012Z,0
2016-11-13T02:31:24.847Z,0
2016-11-13T02:32:23.344Z,0
2016-11-13T02:33:24.402Z,0
2016-11-13T02:34:23.410Z,0
2016-11-13T02:35:23.671Z,0
2016-11-13T02:36:23.634Z,0
2016-11-13T02:37:23.445Z,0
2016-11-13T02:38:23.333Z,0
2016-11-13T02:39:24.019Z,0
2016-11-13T02:40:23.182Z,0
2016-11-13T02:41:23.346Z,0
2016-11-13T02:42:25.254Z,0
2016-11-13T02:43:23.408Z,0
2016-11-13T02:44:24.540Z,0
2016-11-13T02:45:23.402Z,0
2016-11-13T02:46:23.385Z,0
2016-11-13T02:47:23.743Z,0
2016-11-13T02:48:23.494Z,0
2016-11-13T02:49:23.437Z,0
2016-11-13T02:50:24.069Z,0
2016-11-13T02:51:23.511Z,0
2016-11-13T02:52:23.733Z,0
2016-11-13T02:53:24.940Z,0
2016-11-13T02:54:23.435Z,0
2016-11-13T02:55:24.551Z,0
2016-11-13T02:56:22.820Z,0
2016-11-13T02:57:24.078Z,0
2016-11-13T02:58:24.083Z,0
2016-11-13T02:59:23.518Z,0
2016-11-13T03:00:23.784Z,0
2016-11-13T03:01:23.840Z,0
2016-11-13T03:02:23.484Z,0
2016-11-13T03:03:23.543Z,0
2016-11-13T03:04:24.940Z,0
2016-11-13T03:05:23.552Z,0
2016-11-13T03:06:24.614Z,0
2016-11-13T03:07:23.573Z,0
2016-11-13T03:08:23.576Z,0
2016-11-13T03:09:23.987Z,0
2016-11-13T03:10:23.947Z,0
2016-11-13T03:11:24.556Z,0
2016-11-13T03:12:23.234Z,0
2016-11-13T03:13:23.278Z,0
2016-11-13T03:14:23.657Z,0
2016-11-13T03:15:25.119Z,0
2016-11-13T03:16:24.250Z,0
2016-11-13T03:17:24.691Z,0
2016-11-13T03:18:23.955Z,0
2016-11-13T03:19:23.596Z,0
2016-11-13T03:20:23.910Z,0
2016-11-13T03:21:23.655Z,0
2016-11-13T03:22:23.092Z,0
2016-11-13T03:23:24.247Z,0
2016-11-13T03:24:23.944Z,0
2016-11-13T03:25:23.685Z,0
2016-11-13T03:26:25.564Z,0
2016-11-13T03:27:23.649Z,0
2016-11-13T03:28:23.703Z,0
2016-11-13T03:29:23.708Z,0
2016-11-13T03:30:23.713Z,0
2016-11-13T03:31:23.703Z,0
2016-11-13T03:32:23.431Z,0
2016-11-13T03:33:24.359Z,0
2016-11-13T03:34:23.741Z,0
2016-11-13T03:35:23.866Z,0
2016-11-13T03:36:24.378Z,0
2016-11-13T03:37:25.935Z,0
2016-11-13T03:38:24.389Z,0
2016-11-13T03:39:24.032Z,0
2016-11-13T03:40:23.833Z,0
2016-11-13T03:41:23.424Z,0
2016-11-13T03:42:23.791Z,0
2016-11-13T03:43:23.178Z,0
2016-11-13T03:44:23.757Z,0
2016-11-13T03:45:23.766Z,0
2016-11-13T03:46:24.204Z,0
2016-11-13T03:47:23.825Z,0
2016-11-13T03:48:23.837Z,0
2016-11-13T03:49:23.167Z,0
2016-11-13T03:50:23.532Z,0
2016-11-13T03:51:24.114Z,0
2016-11-13T03:52:23.903Z,0
2016-11-13T03:53:24.229Z,0
2016-11-13T03:54:24.183Z,0
2016-11-13T03:55:24.188Z,0
2016-11-13T03:56:24.457Z,0
2016-11-13T03:57:24.547Z,0
2016-11-13T03:58:23.887Z,0
2016-11-13T03:59:24.247Z,0
2016-11-13T04:00:24.219Z,0
2016-11-13T04:01:23.590Z,0
2016-11-13T04:02:23.556Z,0
2016-11-13T04:03:23.246Z,0
2016-11-13T04:04:23.664Z,0
2016-11-13T04:05:24.199Z,0
2016-11-13T04:06:23.316Z,0
2016-11-13T04:07:24.316Z,0
2016-11-13T04:08:24.960Z,0
2016-11-13T04:09:23.962Z,0
2016-11-13T04:10:24.566Z,0
2016-11-13T04:11:24.287Z,0
2016-11-13T04:12:23.667Z,0
2016-11-13T04:13:23.969Z,0
2016-11-13T04:14:24.572Z,0
2016-11-13T04:15:24.262Z,0
2016-11-13T04:16:24.719Z,0
2016-11-13T04:17:24.636Z,0
2016-11-13T04:18:24.025Z,0
2016-11-13T04:19:25.032Z,0
2016-11-13T04:20:23.668Z,0
2016-11-13T04:21:24.602Z,0
2016-11-13T04:22:24.351Z,0
2016-11-13T04:23:24.367Z,0
2016-11-13T04:24:24.680Z,0
2016-11-13T04:25:24.637Z,0
2016-11-13T04:26:24.020Z,0
2016-11-13T04:27:23.506Z,0
2016-11-13T04:28:23.717Z,0
2016-11-13T04:29:24.066Z,0
2016-11-13T04:30:25.329Z,0
2016-11-13T04:31:24.517Z,0
2016-11-13T04:32:24.896Z,0
2016-11-13T04:33:24.069Z,0
2016-11-13T04:34:24.385Z,0
2016-11-13T04:35:24.090Z,0
2016-11-13T04:36:24.135Z,0
2016-11-13T04:37:24.707Z,0
2016-11-13T04:38:24.093Z,0
2016-11-13T04:39:24.516Z,0
2016-11-13T04:40:24.419Z,0
2016-11-13T04:41:26.042Z,0
2016-11-13T04:42:23.914Z,0
2016-11-13T04:43:25.327Z,0
2016-11-13T04:44:24.495Z,0
2016-11-13T04:45:24.195Z,0
2016-11-13T04:46:24.145Z,0
2016-11-13T04:47:24.254Z,0
2016-11-13T04:48:24.208Z,0
2016-11-13T04:49:24.534Z,0
2016-11-13T04:50:24.222Z,0
2016-11-13T04:51:24.177Z,0
2016-11-13T04:52:25.739Z,0
2016-11-13T04:53:24.192Z,0
2016-11-13T04:54:25.452Z,0
2016-11-13T04:55:24.203Z,0
2016-11-13T04:56:24.260Z,0
2016-11-13T04:57:24.845Z,0
2016-11-13T04:58:24.605Z,0
2016-11-13T04:59:24.894Z,0
2016-11-13T05:00:24.601Z,0
2016-11-13T05:01:24.343Z,0
2016-11-13T05:02:24.571Z,0
2016-11-13T05:03:26.311Z,0
2016-11-13T05:04:23.636Z,0
2016-11-13T05:05:25.681Z,0
2016-11-13T05:06:24.642Z,0
2016-11-13T05:07:24.071Z,0
2016-11-13T05:08:24.916Z,0
2016-11-13T05:09:24.302Z,0
2016-11-13T05:10:24.322Z,0
2016-11-13T05:11:24.672Z,0
2016-11-13T05:12:24.680Z,0
2016-11-13T05:13:24.418Z,0
2016-11-13T05:14:24.330Z,0
2016-11-13T05:15:24.126Z,0
2016-11-13T05:16:25.952Z,0
2016-11-13T05:17:24.031Z,0
2016-11-13T05:18:24.420Z,0
2016-11-13T05:19:24.984Z,0
2016-11-13T05:20:24.363Z,0
2016-11-13T05:21:24.683Z,0
2016-11-13T05:22:24.161Z,0
2016-11-13T05:23:24.122Z,0
2016-11-13T05:24:24.116Z,0
2016-11-13T05:25:24.592Z,0
2016-11-13T05:26:25.083Z,0
2016-11-13T05:27:26.464Z,0
2016-11-13T05:28:24.527Z,0
2016-11-13T05:29:24.734Z,0
2016-11-13T05:30:24.528Z,0
2016-11-13T05:31:24.745Z,0
2016-11-13T05:32:24.458Z,0
2016-11-13T05:33:25.084Z,0
2016-11-13T05:34:24.189Z,0
2016-11-13T05:35:24.841Z,0
2016-11-13T05:36:24.872Z,0
2016-11-13T05:37:24.472Z,0
2016-11-13T05:38:26.640Z,0
2016-11-13T05:39:24.297Z,0
2016-11-13T05:40:24.901Z,0
2016-11-13T05:41:24.181Z,0
2016-11-13T05:42:24.860Z,0
2016-11-13T05:43:24.207Z,0
2016-11-13T05:44:24.355Z,0
2016-11-13T05:45:24.656Z,0
2016-11-13T05:46:25.032Z,0
2016-11-13T05:47:25.233Z,0
2016-11-13T05:48:24.538Z,0
2016-11-13T05:49:24.558Z,0
2016-11-13T05:50:25.002Z,0
2016-11-13T05:51:24.668Z,0
2016-11-13T05:52:24.040Z,0
2016-11-13T05:53:24.586Z,0
2016-11-13T05:54:24.892Z,0
2016-11-13T05:55:24.895Z,0
2016-11-13T05:56:24.431Z,0
2016-11-13T05:57:24.648Z,0
2016-11-13T05:58:25.202Z,0
2016-11-13T05:59:24.672Z,0
2016-11-13T06:00:27.051Z,0
2016-11-13T06:01:25.035Z,0
2016-11-13T06:02:24.629Z,0
2016-11-13T06:03:25.303Z,0
2016-11-13T06:04:25.011Z,0
2016-11-13T06:05:24.075Z,0
2016-11-13T06:06:24.717Z,0
2016-11-13T06:07:24.093Z,0
2016-11-13T06:08:24.357Z,0
2016-11-13T06:09:25.626Z,0
2016-11-13T06:10:25.041Z,0
2016-11-13T06:11:27.464Z,0
2016-11-13T06:12:24.170Z,0
2016-11-13T06:13:24.753Z,0
2016-11-13T06:14:25.071Z,0
2016-11-13T06:15:25.078Z,0
2016-11-13T06:16:25.046Z,0
2016-11-13T06:17:24.477Z,0
2016-11-13T06:18:25.196Z,0
2016-11-13T06:19:24.431Z,0
2016-11-13T06:20:25.509Z,0
2016-11-13T06:21:25.115Z,0
2016-11-13T06:22:24.840Z,0
2016-11-13T06:23:24.505Z,0
2016-11-13T06:24:25.119Z,0
2016-11-13T06:25:24.878Z,0
2016-11-13T06:26:24.796Z,0
2016-11-13T06:27:25.188Z,0
2016-11-13T06:28:25.214Z,0
2016-11-13T06:29:25.165Z,0
2016-11-13T06:30:25.537Z,0
2016-11-13T06:31:25.993Z,0
2016-11-13T06:32:25.138Z,0
2016-11-13T06:33:25.189Z,0
2016-11-13T06:34:24.576Z,0
2016-11-13T06:35:25.259Z,0
2016-11-13T06:36:24.539Z,0
2016-11-13T06:37:24.543Z,0
2016-11-13T06:38:25.175Z,0
2016-11-13T06:39:24.604Z,0
2016-11-13T06:40:24.982Z,0
2016-11-13T06:41:24.566Z,0
2016-11-13T06:42:26.253Z,0
2016-11-13T06:43:25.210Z,0
2016-11-13T06:44:55.864Z,0
2016-11-13T06:45:25.279Z,0
2016-11-13T06:46:24.651Z,0
2016-11-13T06:47:24.297Z,0
2016-11-13T06:48:24.927Z,0
2016-11-13T06:49:25.615Z,0
2016-11-13T06:50:25.617Z,0
2016-11-13T06:51:25.256Z,0
2016-11-13T06:52:25.552Z,0
2016-11-13T06:53:26.523Z,0
2016-11-13T06:54:24.964Z,0
2016-11-13T06:55:25.718Z,0
2016-11-13T06:56:24.718Z,0
2016-11-13T06:57:25.344Z,0
2016-11-13T06:58:25.353Z,0
2016-11-13T06:59:24.788Z,0
2016-11-13T07:00:25.317Z,0
2016-11-13T07:01:25.012Z,0
2016-11-13T07:02:25.688Z,0
2016-11-13T07:03:25.650Z,0
2016-11-13T07:04:26.849Z,0
2016-11-13T07:05:25.038Z,0
2016-11-13T07:06:25.685Z,0
2016-11-13T07:07:25.050Z,0
2016-11-13T07:08:25.676Z,0
2016-11-13T07:09:25.064Z,0
2016-11-13T07:10:25.213Z,0
2016-11-13T07:11:24.774Z,0
2016-11-13T07:12:25.477Z,0
2016-11-13T07:13:25.086Z,0
2016-11-13T07:14:25.556Z,0
2016-11-13T07:15:27.071Z,0
2016-11-13T07:16:25.451Z,0
2016-11-13T07:17:26.263Z,0
2016-11-13T07:18:25.173Z,0
2016-11-13T07:19:25.587Z,0
2016-11-13T07:20:25.181Z,0
2016-11-13T07:21:25.479Z,0
2016-11-13T07:22:25.144Z,5
2016-11-13T07:23:25.516Z,5
2016-11-13T07:24:25.152Z,5
2016-11-13T07:25:24.908Z,5
2016-11-13T07:26:27.227Z,5
2016-11-13T07:27:25.173Z,5
2016-11-13T07:28:26.445Z,5
2016-11-13T07:29:25.189Z,5
2016-11-13T07:30:25.295Z,5
2016-11-13T07:31:24.627Z,5
2016-11-13T07:32:25.571Z,5
2016-11-13T07:33:24.952Z,5
2016-11-13T07:34:25.639Z,5
2016-11-13T07:35:24.602Z,5
2016-11-13T07:36:24.974Z,5
2016-11-13T07:37:27.576Z,5
2016-11-13T07:38:25.924Z,5
2016-11-13T07:39:26.526Z,5
2016-11-13T07:40:25.803Z,5
2016-11-13T07:41:24.953Z,5
2016-11-13T07:42:25.492Z,5
2016-11-13T07:43:25.288Z,5
2016-11-13T07:44:25.962Z,5
2016-11-13T07:45:25.606Z,5
2016-11-13T07:46:25.664Z,10
2016-11-13T07:47:25.308Z,10
2016-11-13T07:48:25.412Z,10
2016-11-13T07:49:25.054Z,10
2016-11-13T07:50:27.236Z,10
2016-11-13T07:51:25.337Z,10
2016-11-13T07:52:25.075Z,10
2016-11-13T07:53:25.775Z,10
2016-11-13T07:54:25.714Z,10
2016-11-13T07:55:25.512Z,10
2016-11-13T07:56:26.077Z,10
2016-11-13T07:57:25.780Z,10
2016-11-13T07:58:25.837Z,10
2016-11-13T07:59:25.698Z,10
2016-11-13T08:00:25.452Z,10
2016-11-13T08:01:27.047Z,10
2016-11-13T08:02:25.718Z,10
2016-11-13T08:03:26.030Z,10
2016-11-13T08:04:25.779Z,10
2016-11-13T08:05:25.541Z,10
2016-11-13T08:06:25.482Z,10
2016-11-13T08:07:25.221Z,10
2016-11-13T08:08:26.194Z,10
2016-11-13T08:09:26.121Z,10
2016-11-13T08:10:26.094Z,10
2016-11-13T08:11:25.591Z,10
2016-11-13T08:12:25.901Z,10
2016-11-13T08:13:24.850Z,10
2016-11-13T08:14:25.893Z,10
2016-11-13T08:15:25.939Z,10
2016-11-13T08:16:25.905Z,10
2016-11-13T08:17:25.322Z,10
2016-11-13T08:18:25.820Z,10
2016-11-13T08:19:27.030Z,10
2016-11-13T08:20:26.452Z,10
2016-11-13T08:21:26.933Z,10
2016-11-13T08:22:25.946Z,10
2016-11-13T08:23:26.255Z,10
2016-11-13T08:24:25.601Z,10
2016-11-13T08:25:25.941Z,10
2016-11-13T08:26:25.583Z,10
2016-11-13T08:27:25.899Z,10
2016-11-13T08:28:25.359Z,10
2016-11-13T08:29:25.579Z,10
2016-11-13T08:30:26.608Z,10
2016-11-13T08:31:25.358Z,10
2016-11-13T08:32:27.136Z,10
2016-11-13T08:33:25.678Z,10
2016-11-13T08:34:26.347Z,10
2016-11-13T08:35:26.292Z,10
2016-11-13T08:36:25.307Z,10
2016-11-13T08:37:25.624Z,10
2016-11-13T08:38:25.997Z,10
2016-11-13T08:39:25.950Z,10
2016-11-13T08:40:25.957Z,10
2016-11-13T08:41:26.945Z,10
2016-11-13T08:42:25.985Z,10
2016-11-13T08:43:26.918Z,10
2016-11-13T08:44:25.720Z,10
2016-11-13T08:45:26.572Z,10
2016-11-13T08:46:25.374Z,10
2016-11-13T08:47:25.427Z,10
2016-11-13T08:48:25.434Z,10
2016-11-13T08:49:25.805Z,10
2016-11-13T08:50:26.066Z,10
2016-11-13T08:51:25.412Z,10
2016-11-13T08:52:25.562Z,10
2016-11-13T08:53:25.787Z,10
2016-11-13T08:54:27.506Z,10
2016-11-13T08:55:25.745Z,10
2016-11-13T08:56:26.813Z,10
2016-11-13T08:57:26.169Z,10
2016-11-13T08:58:25.188Z,10
2016-11-13T08:59:25.771Z,10
2016-11-13T09:00:26.136Z,10
2016-11-13T09:01:25.889Z,10
2016-11-13T09:02:26.468Z,10
2016-11-13T09:03:25.843Z,10
2016-11-13T09:04:26.534Z,10
2016-11-13T09:05:27.857Z,10
2016-11-13T09:06:26.131Z,10
2016-11-13T09:07:27.205Z,10
2016-11-13T09:08:25.572Z,10
2016-11-13T09:09:26.193Z,10
2016-11-13T09:10:25.888Z,10
2016-11-13T09:11:26.159Z,15
2016-11-13T09:12:25.908Z,15
2016-11-13T09:13:25.907Z,15
2016-11-13T09:14:26.329Z,15
2016-11-13T09:15:26.544Z,15
2016-11-13T09:16:26.603Z,15
2016-11-13T09:17:25.574Z,15
2016-11-13T09:18:25.267Z,15
2016-11-13T09:19:25.949Z,15
2016-11-13T09:20:25.750Z,15
2016-11-13T09:21:26.722Z,15
2016-11-13T09:22:25.656Z,15
2016-11-13T09:23:26.240Z,15
2016-11-13T09:24:25.654Z,20
2016-11-13T09:25:27.051Z,20
2016-11-13T09:26:26.361Z,20
2016-11-13T09:27:26.651Z,20
2016-11-13T09:28:26.268Z,20
2016-11-13T09:29:25.679Z,20
2016-11-13T09:30:26.021Z,20
2016-11-13T09:31:26.406Z,20
2016-11-13T09:32:26.345Z,25
2016-11-13T09:33:26.297Z,25
2016-11-13T09:34:26.868Z,25
2016-11-13T09:35:26.005Z,25
2016-11-13T09:36:27.020Z,25
2016-11-13T09:37:26.009Z,25
2016-11-13T09:38:26.992Z,25
2016-11-13T09:39:26.071Z,25
2016-11-13T09:40:26.665Z,30
2016-11-13T09:41:26.043Z,30
2016-11-13T09:42:26.353Z,30
2016-11-13T09:43:25.838Z,30
2016-11-13T09:44:25.747Z,30
2016-11-13T09:45:26.115Z,30
2016-11-13T09:46:26.378Z,30
2016-11-13T09:47:26.735Z,30
2016-11-13T09:48:26.458Z,30
2016-11-13T09:49:27.465Z,35
2016-11-13T09:50:26.143Z,35
2016-11-13T09:51:26.713Z,35
2016-11-13T09:52:26.225Z,35
2016-11-13T09:53:25.491Z,35
2016-11-13T09:54:25.857Z,35
2016-11-13T09:55:26.435Z,35
2016-11-13T09:56:26.184Z,40
2016-11-13T09:57:25.975Z,40
2016-11-13T09:58:26.464Z,40
2016-11-13T09:59:25.880Z,40
2016-11-13T10:00:28.002Z,40
2016-11-13T10:01:26.473Z,45
2016-11-13T10:02:27.213Z,45
2016-11-13T10:03:26.330Z,45
2016-11-13T10:04:25.883Z,45
2016-11-13T10:05:25.927Z,45
2016-11-13T10:06:26.194Z,45
2016-11-13T10:07:26.882Z,45
2016-11-13T10:08:26.289Z,45
2016-11-13T10:09:26.890Z,40
2016-11-13T10:10:26.533Z,40
2016-11-13T10:11:28.279Z,40
2016-11-13T10:12:27.043Z,40
2016-11-13T10:13:27.365Z,35
2016-11-13T10:14:26.808Z,35
2016-11-13T10:15:26.254Z,35
2016-11-13T10:16:26.310Z,35
2016-11-13T10:17:25.638Z,35
2016-11-13T10:18:25.647Z,35
2016-11-13T10:19:26.641Z,35
2016-11-13T10:20:26.317Z,35
2016-11-13T10:21:26.027Z,30
2016-11-13T10:22:28.612Z,30
2016-11-13T10:23:26.306Z,30
2016-11-13T10:24:27.416Z,30
2016-11-13T10:25:26.667Z,30
2016-11-13T10:26:26.424Z,30
2016-11-13T10:27:26.380Z,30
2016-11-13T10:28:26.638Z,25
2016-11-13T10:29:26.650Z,25
2016-11-13T10:30:26.397Z,25
2016-11-13T10:31:26.706Z,25
2016-11-13T10:32:26.240Z,25
2016-11-13T10:33:26.091Z,25
2016-11-13T10:34:26.792Z,25
2016-11-13T10:35:27.668Z,25
2016-11-13T10:36:26.384Z,25
2016-11-13T10:37:26.451Z,25
2016-11-13T10:38:26.510Z,25
2016-11-13T10:39:26.458Z,30
2016-11-13T10:40:26.155Z,30
2016-11-13T10:41:26.468Z,30
2016-11-13T10:42:27.798Z,30
2016-11-13T10:43:25.904Z,30
2016-11-13T10:44:27.094Z,30
2016-11-13T10:45:26.511Z,35
2016-11-13T10:46:26.504Z,35
2016-11-13T10:47:26.874Z,35
2016-11-13T10:48:26.465Z,35
2016-11-13T10:49:26.530Z,40
2016-11-13T10:50:26.581Z,40
2016-11-13T10:51:26.514Z,40
2016-11-13T10:52:26.228Z,40
2016-11-13T10:53:27.389Z,40
2016-11-13T10:54:27.186Z,40
2016-11-13T10:55:27.417Z,40
2016-11-13T10:56:26.523Z,45
2016-11-13T10:57:26.818Z,45
2016-11-13T10:58:26.942Z,45
2016-11-13T10:59:26.907Z,45
2016-11-13T11:00:26.955Z,45
2016-11-13T11:01:26.685Z,45
2016-11-13T11:02:26.969Z,50
2016-11-13T11:03:27.244Z,50
2016-11-13T11:04:28.385Z,50
2016-11-13T11:05:26.267Z,50
2016-11-13T11:06:27.844Z,50
2016-11-13T11:07:27.009Z,50
2016-11-13T11:08:27.154Z,50
2016-11-13T11:09:26.648Z,50
2016-11-13T11:10:26.301Z,50
2016-11-13T11:11:26.301Z,50
2016-11-13T11:12:27.345Z,45
2016-11-13T11:13:26.416Z,45
2016-11-13T11:14:26.322Z,45
2016-11-13T11:15:28.513Z,45
2016-11-13T11:16:26.335Z,45
2016-11-13T11:17:28.305Z,45
2016-11-13T11:18:26.760Z,45
2016-11-13T11:19:27.565Z,45
2016-11-13T11:20:26.356Z,40
2016-11-13T11:21:27.040Z,40
2016-11-13T11:22:26.684Z,40
2016-11-13T11:23:26.846Z,40
2016-11-13T11:24:27.009Z,40
2016-11-13T11:25:26.755Z,35
2016-11-13T11:26:27.334Z,35
2016-11-13T11:27:27.029Z,35
2016-11-13T11:28:28.774Z,35
2016-11-13T11:29:26.780Z,35
2016-11-13T11:30:26.735Z,35
2016-11-13T11:31:26.799Z,35
2016-11-13T11:32:26.791Z,30
2016-11-13T11:33:27.431Z,30
2016-11-13T11:34:27.388Z,30
2016-11-13T11:35:26.920Z,30
2016-11-13T11:36:26.768Z,30
2016-11-13T11:37:27.444Z,30
2016-11-13T11:38:26.887Z,30
2016-11-13T11:39:26.993Z,30
2016-11-13T11:40:26.952Z,30
2016-11-13T11:41:26.548Z,30
2016-11-13T11:42:26.815Z,30
2016-11-13T11:43:26.550Z,30
2016-11-13T11:44:27.237Z,30
2016-11-13T11:45:27.145Z,30
2016-11-13T11:46:27.199Z,30
2016-11-13T11:47:26.215Z,30
2016-11-13T11:48:27.683Z,30
2016-11-13T11:49:27.007Z,30
2016-11-13T11:50:27.345Z,30
2016-11-13T11:51:26.910Z,30
2016-11-13T11:52:27.239Z,30
2016-11-13T11:53:26.877Z,30
2016-11-13T11:54:26.357Z,30
2016-11-13T11:55:26.262Z,30
2016-11-13T11:56:27.262Z,30
2016-11-13T11:57:27.336Z,25
2016-11-13T11:58:26.641Z,25
2016-11-13T11:59:27.878Z,25
2016-11-13T12:00:27.234Z,25
2016-11-13T12:01:27.564Z,25
2016-11-13T12:02:26.719Z,25
2016-11-13T12:03:27.328Z,25
2016-11-13T12:04:27.360Z,25
2016-11-13T12:05:26.643Z,25
2016-11-13T12:06:27.369Z,25
2016-11-13T12:07:27.021Z,25
2016-11-13T12:08:27.022Z,25
2016-11-13T12:09:27.059Z,25
2016-11-13T12:10:28.392Z,25
2016-11-13T12:11:27.041Z,25
2016-11-13T12:12:28.194Z,25
2016-11-13T12:13:26.719Z,20
2016-11-13T12:14:27.052Z,20
2016-11-13T12:15:27.329Z,20
2016-11-13T12:16:26.759Z,20
2016-11-13T12:17:27.419Z,20
2016-11-13T12:18:27.353Z,20
2016-11-13T12:19:27.767Z,20
2016-11-13T12:20:26.778Z,20
2016-11-13T12:21:29.128Z,20
2016-11-13T12:22:27.064Z,20
2016-11-13T12:23:28.773Z,20
2016-11-13T12:24:27.068Z,20
2016-11-13T12:25:27.125Z,20
2016-11-13T12:26:26.815Z,20
2016-11-13T12:27:27.399Z,20
2016-11-13T12:28:27.406Z,20
2016-11-13T12:29:27.774Z,20
2016-11-13T12:30:27.111Z,15
2016-11-13T12:31:27.474Z,15
2016-11-13T12:32:27.466Z,15
2016-11-13T12:33:27.750Z,15
2016-11-13T12:34:29.268Z,15
2016-11-13T12:35:26.856Z,15
2016-11-13T12:36:27.503Z,15
2016-11-13T12:37:27.826Z,15
2016-11-13T12:38:27.254Z,15
2016-11-13T12:39:27.793Z,15
2016-11-13T12:40:27.176Z,15
2016-11-13T12:41:27.487Z,15
2016-11-13T12:42:26.916Z,15
2016-11-13T12:43:27.878Z,15
2016-11-13T12:44:27.517Z,15
2016-11-13T12:45:29.784Z,15
2016-11-13T12:46:27.709Z,15
2016-11-13T12:47:27.259Z,15
2016-11-13T12:48:27.578Z,15
2016-11-13T12:49:27.229Z,10
2016-11-13T12:50:27.641Z,10
2016-11-13T12:51:27.548Z,10
2016-11-13T12:52:27.920Z,10
2016-11-13T12:53:27.297Z,10
2016-11-13T12:54:28.260Z,10
2016-11-13T12:55:26.999Z,10
2016-11-13T12:56:27.234Z,10
2016-11-13T12:57:27.374Z,10
2016-11-13T12:58:27.278Z,10
2016-11-13T12:59:27.345Z,10
2016-11-13T13:00:26.976Z,10
2016-11-13T13:01:27.721Z,10
2016-11-13T13:02:27.924Z,10
2016-11-13T13:03:27.671Z,10
2016-11-13T13:04:27.004Z,10
2016-11-13T13:05:28.783Z,10
2016-11-13T13:06:27.377Z,10
2016-11-13T13:07:27.986Z,10
2016-11-13T13:08:27.128Z,10
2016-11-13T13:09:27.660Z,10
2016-11-13T13:10:27.663Z,10
2016-11-13T13:11:27.411Z,10
2016-11-13T13:12:27.726Z,10
2016-11-13T13:13:27.736Z,10
2016-11-13T13:14:27.114Z,10
2016-11-13T13:15:27.480Z,10
2016-11-13T13:16:29.408Z,10
2016-11-13T13:17:27.139Z,10
2016-11-13T13:18:28.652Z,10
2016-11-13T13:19:27.721Z,10
2016-11-13T13:20:27.726Z,10
2016-11-13T13:21:27.422Z,10
2016-11-13T13:22:26.800Z,10
2016-11-13T13:23:27.484Z,10
2016-11-13T13:24:27.439Z,10
2016-11-13T13:25:27.547Z,10
2016-11-13T13:26:27.459Z,10
2016-11-13T13:27:27.455Z,10
2016-11-13T13:28:27.880Z,10
2016-11-13T13:29:29.031Z,10
2016-11-13T13:30:27.299Z,10
2016-11-13T13:31:27.841Z,10
2016-11-13T13:32:27.849Z,10
2016-11-13T13:33:28.108Z,10
2016-11-13T13:34:27.556Z,10
2016-11-13T13:35:28.247Z,10
2016-11-13T13:36:27.522Z,10
2016-11-13T13:37:27.256Z,10
2016-11-13T13:38:27.584Z,10
2016-11-13T13:39:27.220Z,10
2016-11-13T13:40:29.407Z,10
2016-11-13T13:41:27.905Z,10
2016-11-13T13:42:27.920Z,10
2016-11-13T13:43:27.608Z,10
2016-11-13T13:44:27.600Z,10
2016-11-13T13:45:27.621Z,10
2016-11-13T13:46:27.730Z,10
2016-11-13T13:47:28.692Z,10
2016-11-13T13:48:26.963Z,10
2016-11-13T13:49:27.994Z,10
2016-11-13T13:50:27.320Z,10
2016-11-13T13:51:27.742Z,10
2016-11-13T13:52:27.396Z,10
2016-11-13T13:53:28.008Z,10
2016-11-13T13:54:27.631Z,10
2016-11-13T13:55:27.317Z,10
2016-11-13T13:56:28.263Z,10
2016-11-13T13:57:28.374Z,10
2016-11-13T13:58:28.862Z,10
2016-11-13T13:59:27.968Z,5
2016-11-13T14:00:28.686Z,5
2016-11-13T14:01:27.993Z,5
2016-11-13T14:02:28.087Z,5
2016-11-13T14:03:27.728Z,5
2016-11-13T14:04:27.784Z,5
2016-11-13T14:05:27.728Z,5
2016-11-13T14:06:27.800Z,5
2016-11-13T14:07:28.071Z,5
2016-11-13T14:08:27.409Z,5
2016-11-13T14:09:28.877Z,5
2016-11-13T14:10:27.147Z,5
2016-11-13T14:11:28.949Z,5
2016-11-13T14:12:28.548Z,5
2016-11-13T14:13:28.491Z,5
2016-11-13T14:14:27.799Z,5
2016-11-13T14:15:28.099Z,5
2016-11-13T14:16:27.444Z,5
2016-11-13T14:17:27.453Z,5
2016-11-13T14:18:27.810Z,5
2016-11-13T14:19:28.087Z,5
2016-11-13T14:20:27.889Z,5
2016-11-13T14:21:27.872Z,5
2016-11-13T14:22:29.472Z,5
2016-11-13T14:23:27.850Z,5
2016-11-13T14:24:28.904Z,5
2016-11-13T14:25:27.575Z,5
2016-11-13T14:26:28.234Z,5
2016-11-13T14:27:27.609Z,5
2016-11-13T14:28:27.616Z,5
2016-11-13T14:29:28.701Z,5
2016-11-13T14:30:27.585Z,5
2016-11-13T14:31:27.580Z,5
2016-11-13T14:32:27.907Z,5
2016-11-13T14:33:29.844Z,5